AirNav   Everest Fuels
 
 742 users online  

KNHU Norfolk Naval Station Airport
Norfolk, Virginia, USA


FAA INFORMATION EFFECTIVE 09 SEPTEMBER 2021

Location

FAA Identifier: NHU
Lat/Long: 36-57-20.3500N 076-18-13.5250W
36-57.339167N 076-18.225417W
36.9556528,-76.3037569
(estimated)
Elevation: 10 ft. / 3 m (estimated)
Variation: 10W (1990)
From city: 7 miles N of NORFOLK, VA
Time zone: UTC +0 (year round; does not observe DST)
Zip code: 23511

Airport Operations

Airport use: Private use. Permission required prior to landing
Activation date: 04/2021
Control tower: yes
ARTCC: WASHINGTON CENTER
FSS: LEESBURG FLIGHT SERVICE STATION
Attendance: 
Wind indicator: yes
Segmented circle: no

Airport Communications

WX ASOS at ORF (6 nm SE): PHONE 757-460-9348
WX AWOS-3PT at PVG (13 nm SW): 118.375 (757-465-2175)
WX ASOS at PHF (14 nm NW): PHONE 757-874-3682
WX ASOS at NTU (15 nm SE): PHONE DSN 433-3619 or 757-433-3619
WX AWOS-3 at CPK (17 nm S): 123.675 (757-204-4290)

Nearby radio navigation aids

VOR radial/distance  VOR name  Freq  Var
ORFr315/6.3NORFOLK VORTAC116.9007W
CCVr222/27.7CAPE CHARLES VORTAC112.2010W
HCMr154/35.4HARCUM VORTAC108.8007W
FKNr076/37.0FRANKLIN VORTAC110.6009W

 
NDB name  Hdg/Dist  Freq  Var  ID
INGLE349/7.432909WOR --- .-.
WAKEFIELD104/33.527411WAKQ .- -.- --.-

Airport Services

Runway Information

Runway 9/27

Dimensions: 1705 x 150 ft. / 520 x 46 m
Surface: asphalt, in excellent condition
RUNWAY 9  RUNWAY 27
Latitude: 36-57.329667N36-57.348667N
Longitude: 076-18.400167W076-18.050667W
Elevation: 8.8 ft.9.1 ft.
Traffic pattern: leftleft
Runway heading: 096 magnetic, 086 true276 magnetic, 266 true
Touchdown point: yes, no lightsyes, no lights

Helipad H3

Dimensions: 120 x 120 ft. / 37 x 37 m
Surface: concrete, in excellent condition
Latitude: 36-57.258000N
Longitude: 076-18.326667W
Elevation: 9.4 ft.
Traffic pattern: leftleft

Helipad H4

Dimensions: 120 x 120 ft. / 37 x 37 m
Surface: concrete, in excellent condition
Latitude: 36-57.208667N
Longitude: 076-18.322667W
Elevation: 8.2 ft.
Traffic pattern: leftleft

Helipad H5

Dimensions: 120 x 120 ft. / 37 x 37 m
Surface: concrete, in excellent condition
Latitude: 36-57.012667N
Longitude: 076-16.665667W
Elevation: 8.7 ft.
Traffic pattern: leftleft

Helipad H6

Dimensions: 120 x 120 ft. / 37 x 37 m
Surface: concrete, in excellent condition
Latitude: 36-56.975667N
Longitude: 076-16.807667W
Elevation: 8.9 ft.
Traffic pattern: leftleft

Helipad H7

Dimensions: 120 x 120 ft. / 37 x 37 m
Surface: concrete, in excellent condition
Latitude: 36-56.938000N
Longitude: 076-16.936167W
Elevation: 8.7 ft.
Traffic pattern: leftleft

Helipad H8

Dimensions: 120 x 120 ft. / 37 x 37 m
Surface: concrete, in excellent condition
Latitude: 36-56.852833N
Longitude: 076-17.201500W
Elevation: 9.0 ft.
Traffic pattern: leftleft

Helipad H9

Dimensions: 120 x 120 ft. / 37 x 37 m
Surface: concrete, in excellent condition
Latitude: 36-56.900500N
Longitude: 076-17.642833W
Elevation: 9.4 ft.
Traffic pattern: leftleft

Helipad H1

Dimensions: 75 x 75 ft. / 23 x 23 m
Surface: asphalt, in excellent condition
Latitude: 36-57.346000N
Longitude: 076-18.101667W
Elevation: 9.1 ft.
Traffic pattern: leftleft

Helipad H2

Dimensions: 75 x 75 ft. / 23 x 23 m
Surface: asphalt, in excellent condition
Latitude: 36-57.333000N
Longitude: 076-18.321667W
Elevation: 8.8 ft.
Traffic pattern: leftleft

Airport Ownership and Management from official FAA records

Ownership: U.S. Navy
Owner: NAVAL STATION NORFOLK
1530 GILBERT ST STE 2000
NORFOLK, VA 23511
Phone 757-322-2302
Manager: SHANE DUDLEY
8610 AIR CARGO ROAD
NORFOLK, VA 23511
Phone 757-322-3420

Instrument Procedures

NOTE: All procedures below are presented as PDF files. If you need a reader for these files, you should download the free Adobe Reader.

NOT FOR NAVIGATION. Please procure official charts for flight.
FAA instrument procedures published for use from 09 September 2021 at 0901Z to 07 October 2021 at 0900Z.

 
IAPs - Instrument Approach Procedures
COPTER RNAV (GPS) 141   download (135KB)
COPTER RNAV (GPS) 276   download (128KB)
 
Departure Procedures
COPTER PRIDE ONE   2 pages: [1] [2] (238KB)
NOTE: Special Take-Off Minimums/Departure Procedures apply   download (356KB)

Other nearby airports with instrument procedures:

KNGU - Norfolk Naval Station (Chambers Field) (1 nm SE)
KORF - Norfolk International Airport (6 nm SE)
KLFI - Langley Air Force Base (8 nm N)
KPVG - Hampton Roads Executive Airport (13 nm SW)
KPHF - Newport News/Williamsburg International Airport (14 nm NW)
KNTU - Oceana Naval Air Station (Apollo Soucek Field) (15 nm SE)
KCPK - Chesapeake Regional Airport (17 nm S)
KFAF - Felker Army Airfield (18 nm NW)
 
Loc | Ops | Rwys | IFR | FBO | Links
Com | Nav | Svcs | Stats | Notes
Aerial photo
No photo
 
Airport distance calculator
Flying to Norfolk Naval Station Airport? Find the distance to fly.

From to KNHU

Sunrise and sunset
Times for 23-Sep-2021
 Zulu (UTC)
Morning civil twilight10:29
Sunrise10:55
Sunset23:00
Evening civil twilight23:26

Current date and time
Zulu (UTC)  24-Sep-2021 04:18:27
 
METAR
KNGU 
3nm SE 
240359Z 27003KT 10SM BKN050 OVC100 21/18 A2999 RMK AO2 SLP156 T02110183 $
KORF 
6nm SE 
240351Z 24004KT 10SM SCT021 BKN027 OVC075 19/18 A2998 RMK AO2 SLP151 T01940183
KLFI 
7nm NW 
240256Z AUTO 00000KT 10SM OVC055 19/19 A2998 RMK AO2 SLP159 T01900190 51012 $
KPVG 
13nm SW 
240356Z AUTO 00000KT 10SM BKN060 OVC075 18/18 A2999 RMK AO2 SLP157 T01780178 402440172 PNO $
KPHF 
14nm NW 
240354Z 29004KT 10SM CLR 18/18 A2998 RMK AO2 SLP151 T01780178
KNTU 
16nm SE 
240356Z 00000KT 10SM FEW050 OVC080 20/17 A2997 RMK AO2 SLP151 T02000172
KCPK 
17nm S 
240355Z AUTO 00000KT 10SM OVC050 18/18 A2999 RMK AO2 LTG DSNT E AND SE T01820175
KNFE 
18nm SE 
240356Z AUTO 30003KT 10SM OVC049 19/18 A2998 RMK AO2 SLP152 T01940178
KFAF 
18nm NW 
240256Z AUTO 00000KT 5SM HZ FEW009 18/14 A2997 RMK AO2 SLP152 T01810138 51013 $
TAF
KNGU 
3nm SE 
2323/2423 VRB04KT 9999 VCSH BKN040 BKN060 QNH2989INS TEMPO 2323/2405 36006KT 8000 -SHRA BR SCT015 BKN030 OVC070 FM240500 36008KT 9999 FEW020 SCT040 BKN110 QNH2994INS FM241000 01012G18KT 9999 VCSH FEW025 SCT035 SCT120 QNH2998INS FM241800 02008KT 9999 FEW040 FEW280 QNH3001INS T18/2408Z T23/2419Z FN00062
KORF 
6nm SE 
232209Z 2322/2418 27007KT P6SM VCSH FEW008 BKN035 FM240600 01008KT P6SM SCT025 BKN035 FM241300 01012G19KT P6SM SCT035
KLFI 
7nm NW 
240100Z 2401/2507 30009KT 9999 SCT030 BKN050 QNH2995INS BECMG 2405/2406 35009KT 9999 SCT050 QNH2996INS BECMG 2411/2412 35009KT 9999 FEW050 QNH3004INS TX24/2419Z TN18/2409Z
KPHF 
14nm NW 
232025Z 2320/2418 30006KT P6SM VCSH FEW006 BKN050 FM232300 34005KT P6SM BKN040 FM241400 02009KT P6SM SCT040
KNTU 
16nm SE 
2323/2423 33006KT 9999 FEW010 OVC030 QNH2987INS TEMPO 2323/2405 VRB06KT 3200 SHRA BKN020 OVC030 FM240500 01008KT 9999 VCSH BKN035 OVC100 QNH2990INS FM241200 01014G24KT 9999 BKN040 QNH3000INS T19/2410Z T23/2419Z FN20051
KFAF 
18nm NW 
240200Z 2402/2508 VRB06KT 9999 FEW018 FEW025 SCT070 QNH2992INS BECMG 2415/2416 36010G15KT 9999 SKC QNH3000INS BECMG 2422/2423 VRB06KT 9999 SKC QNH3001INS TX21/2419Z TN13/2508Z LAST NO AMDS AFT 2403 NEXT 2410
NOTAMs
Click for the latest NOTAMs
NOTAMs are issued by the DoD/FAA and will open in a separate window not controlled by AirNav.

 

 
 

Would you like to see your business listed on this page?

 If your business provides an interesting product or service to pilots, flight crews, aircraft, or users of the Norfolk Naval Station Airport, you should consider listing it here.  To start the listing process, click on the button below
 
Add a business
 

Other Pages about Norfolk Naval Station Airport

Update a link
 
Copyright © AirNav, LLC. All rights reserved. Privacy Policy  Contact